sensor_id;sensor_type;location;lat;lon;timestamp;temperature;humidity
20143;DHT22;10509;46.476;7.134;2023-10-31T00:01:48;8.80;99.90
20143;DHT22;10509;46.476;7.134;2023-10-31T00:04:15;8.80;99.90
20143;DHT22;10509;46.476;7.134;2023-10-31T00:06:40;8.80;99.90
20143;DHT22;10509;46.476;7.134;2023-10-31T00:09:06;8.70;99.90
20143;DHT22;10509;46.476;7.134;2023-10-31T00:11:32;8.70;99.90
20143;DHT22;10509;46.476;7.134;2023-10-31T00:13:57;8.60;99.90
20143;DHT22;10509;46.476;7.134;2023-10-31T00:16:23;8.60;99.90
20143;DHT22;10509;46.476;7.134;2023-10-31T00:18:49;8.70;99.90
20143;DHT22;10509;46.476;7.134;2023-10-31T00:21:15;8.70;99.90
20143;DHT22;10509;46.476;7.134;2023-10-31T00:23:47;8.70;99.90
20143;DHT22;10509;46.476;7.134;2023-10-31T00:26:14;8.70;99.90
20143;DHT22;10509;46.476;7.134;2023-10-31T00:28:40;8.70;99.90
20143;DHT22;10509;46.476;7.134;2023-10-31T00:31:05;8.70;99.90
20143;DHT22;10509;46.476;7.134;2023-10-31T00:33:34;8.80;99.90
20143;DHT22;10509;46.476;7.134;2023-10-31T00:35:59;8.70;99.90
20143;DHT22;10509;46.476;7.134;2023-10-31T00:38:25;8.70;99.90
20143;DHT22;10509;46.476;7.134;2023-10-31T00:40:51;8.70;99.90
20143;DHT22;10509;46.476;7.134;2023-10-31T00:43:16;8.70;99.90
20143;DHT22;10509;46.476;7.134;2023-10-31T00:45:42;8.70;99.90
20143;DHT22;10509;46.476;7.134;2023-10-31T00:48:08;8.70;99.90
20143;DHT22;10509;46.476;7.134;2023-10-31T00:50:33;8.70;99.90
20143;DHT22;10509;46.476;7.134;2023-10-31T00:52:59;8.60;99.90
20143;DHT22;10509;46.476;7.134;2023-10-31T00:55:24;8.60;99.90
20143;DHT22;10509;46.476;7.134;2023-10-31T00:57:50;8.60;99.90
20143;DHT22;10509;46.476;7.134;2023-10-31T01:00:16;8.60;99.90
20143;DHT22;10509;46.476;7.134;2023-10-31T01:02:42;8.60;99.90
20143;DHT22;10509;46.476;7.134;2023-10-31T01:05:08;8.70;99.90
20143;DHT22;10509;46.476;7.134;2023-10-31T01:07:34;8.70;99.90
20143;DHT22;10509;46.476;7.134;2023-10-31T01:10:00;8.60;99.90
20143;DHT22;10509;46.476;7.134;2023-10-31T01:12:25;8.60;99.90
20143;DHT22;10509;46.476;7.134;2023-10-31T01:14:54;8.60;99.90
20143;DHT22;10509;46.476;7.134;2023-10-31T01:17:20;8.60;99.90
20143;DHT22;10509;46.476;7.134;2023-10-31T01:19:46;8.70;99.90
20143;DHT22;10509;46.476;7.134;2023-10-31T01:22:11;8.70;99.90
20143;DHT22;10509;46.476;7.134;2023-10-31T01:24:37;8.70;99.90
20143;DHT22;10509;46.476;7.134;2023-10-31T01:27:02;8.70;99.90
20143;DHT22;10509;46.476;7.134;2023-10-31T01:29:28;8.70;99.90
20143;DHT22;10509;46.476;7.134;2023-10-31T01:31:54;8.70;99.90
20143;DHT22;10509;46.476;7.134;2023-10-31T01:34:20;8.80;99.90
20143;DHT22;10509;46.476;7.134;2023-10-31T01:36:45;8.80;99.90
20143;DHT22;10509;46.476;7.134;2023-10-31T01:39:11;8.80;99.90
20143;DHT22;10509;46.476;7.134;2023-10-31T01:41:37;8.80;99.90
20143;DHT22;10509;46.476;7.134;2023-10-31T01:44:02;8.80;99.90
20143;DHT22;10509;46.476;7.134;2023-10-31T01:46:28;8.80;99.90
20143;DHT22;10509;46.476;7.134;2023-10-31T01:48:54;8.70;99.90
20143;DHT22;10509;46.476;7.134;2023-10-31T01:51:20;8.70;99.90
20143;DHT22;10509;46.476;7.134;2023-10-31T01:53:46;8.70;99.90
20143;DHT22;10509;46.476;7.134;2023-10-31T01:56:13;8.70;99.90
20143;DHT22;10509;46.476;7.134;2023-10-31T01:58:39;8.70;99.90
20143;DHT22;10509;46.476;7.134;2023-10-31T02:01:05;8.80;99.90
20143;DHT22;10509;46.476;7.134;2023-10-31T02:03:32;8.80;99.90
20143;DHT22;10509;46.476;7.134;2023-10-31T02:05:58;8.80;99.90
20143;DHT22;10509;46.476;7.134;2023-10-31T02:08:25;8.80;99.90
20143;DHT22;10509;46.476;7.134;2023-10-31T02:10:51;8.80;99.90
20143;DHT22;10509;46.476;7.134;2023-10-31T02:13:17;8.80;99.90
20143;DHT22;10509;46.476;7.134;2023-10-31T02:15:44;8.70;99.90
20143;DHT22;10509;46.476;7.134;2023-10-31T02:18:10;8.70;99.90
20143;DHT22;10509;46.476;7.134;2023-10-31T02:20:36;8.70;99.90
20143;DHT22;10509;46.476;7.134;2023-10-31T02:23:02;8.70;99.90
20143;DHT22;10509;46.476;7.134;2023-10-31T02:25:28;8.70;99.90
20143;DHT22;10509;46.476;7.134;2023-10-31T02:27:54;8.80;99.90
20143;DHT22;10509;46.476;7.134;2023-10-31T02:30:20;8.80;99.90
20143;DHT22;10509;46.476;7.134;2023-10-31T02:32:45;8.80;99.90
20143;DHT22;10509;46.476;7.134;2023-10-31T02:35:12;8.80;99.90
20143;DHT22;10509;46.476;7.134;2023-10-31T02:37:39;8.80;99.90
20143;DHT22;10509;46.476;7.134;2023-10-31T02:40:05;8.80;99.90
20143;DHT22;10509;46.476;7.134;2023-10-31T02:42:31;8.80;99.90
20143;DHT22;10509;46.476;7.134;2023-10-31T02:44:57;8.80;99.90
20143;DHT22;10509;46.476;7.134;2023-10-31T02:47:23;8.80;99.90
20143;DHT22;10509;46.476;7.134;2023-10-31T02:49:48;8.70;99.90
20143;DHT22;10509;46.476;7.134;2023-10-31T02:52:14;8.70;99.90
20143;DHT22;10509;46.476;7.134;2023-10-31T02:54:40;8.70;99.90
20143;DHT22;10509;46.476;7.134;2023-10-31T02:57:05;8.70;99.90
20143;DHT22;10509;46.476;7.134;2023-10-31T02:59:31;8.70;99.90
20143;DHT22;10509;46.476;7.134;2023-10-31T03:01:57;8.70;99.90
20143;DHT22;10509;46.476;7.134;2023-10-31T03:04:23;8.70;99.90
20143;DHT22;10509;46.476;7.134;2023-10-31T03:06:49;8.70;99.90
20143;DHT22;10509;46.476;7.134;2023-10-31T03:09:15;8.60;99.90
20143;DHT22;10509;46.476;7.134;2023-10-31T03:11:41;8.50;99.90
20143;DHT22;10509;46.476;7.134;2023-10-31T03:14:06;8.60;99.90
20143;DHT22;10509;46.476;7.134;2023-10-31T03:16:32;8.60;99.90
20143;DHT22;10509;46.476;7.134;2023-10-31T03:19:01;8.60;99.90
20143;DHT22;10509;46.476;7.134;2023-10-31T03:21:26;8.60;99.90
20143;DHT22;10509;46.476;7.134;2023-10-31T03:23:52;8.50;99.90
20143;DHT22;10509;46.476;7.134;2023-10-31T03:26:24;8.50;99.90
20143;DHT22;10509;46.476;7.134;2023-10-31T03:28:49;8.50;99.90
20143;DHT22;10509;46.476;7.134;2023-10-31T03:31:15;8.50;99.90
20143;DHT22;10509;46.476;7.134;2023-10-31T03:33:41;8.40;99.90
20143;DHT22;10509;46.476;7.134;2023-10-31T03:36:08;8.40;99.90
20143;DHT22;10509;46.476;7.134;2023-10-31T03:38:37;8.40;99.90
20143;DHT22;10509;46.476;7.134;2023-10-31T03:41:03;8.50;99.90
20143;DHT22;10509;46.476;7.134;2023-10-31T03:43:29;8.50;99.90
20143;DHT22;10509;46.476;7.134;2023-10-31T03:45:54;8.50;99.90
20143;DHT22;10509;46.476;7.134;2023-10-31T03:48:20;8.50;99.90
20143;DHT22;10509;46.476;7.134;2023-10-31T03:50:46;8.40;99.90
20143;DHT22;10509;46.476;7.134;2023-10-31T03:53:12;8.30;99.90
20143;DHT22;10509;46.476;7.134;2023-10-31T03:55:37;8.40;99.90
20143;DHT22;10509;46.476;7.134;2023-10-31T03:58:03;8.20;99.90
20143;DHT22;10509;46.476;7.134;2023-10-31T04:00:29;8.00;99.90
20143;DHT22;10509;46.476;7.134;2023-10-31T04:02:55;7.90;99.90
20143;DHT22;10509;46.476;7.134;2023-10-31T04:05:20;7.90;99.90
20143;DHT22;10509;46.476;7.134;2023-10-31T04:07:47;8.00;99.90
20143;DHT22;10509;46.476;7.134;2023-10-31T04:10:12;8.10;99.90
20143;DHT22;10509;46.476;7.134;2023-10-31T04:12:39;8.10;99.90
20143;DHT22;10509;46.476;7.134;2023-10-31T04:15:05;8.10;99.90
20143;DHT22;10509;46.476;7.134;2023-10-31T04:17:31;8.10;99.90
20143;DHT22;10509;46.476;7.134;2023-10-31T04:19:56;8.20;99.90
20143;DHT22;10509;46.476;7.134;2023-10-31T04:22:22;8.20;99.90
20143;DHT22;10509;46.476;7.134;2023-10-31T04:24:48;8.10;99.90
20143;DHT22;10509;46.476;7.134;2023-10-31T04:27:13;8.10;99.90
20143;DHT22;10509;46.476;7.134;2023-10-31T04:29:39;8.00;99.90
20143;DHT22;10509;46.476;7.134;2023-10-31T04:32:05;8.00;99.90
20143;DHT22;10509;46.476;7.134;2023-10-31T04:34:30;7.90;99.90
20143;DHT22;10509;46.476;7.134;2023-10-31T04:36:56;8.00;99.90
20143;DHT22;10509;46.476;7.134;2023-10-31T04:39:21;8.00;99.90
20143;DHT22;10509;46.476;7.134;2023-10-31T04:41:47;8.00;99.90
20143;DHT22;10509;46.476;7.134;2023-10-31T04:44:13;8.00;99.90
20143;DHT22;10509;46.476;7.134;2023-10-31T04:46:39;8.00;99.90
20143;DHT22;10509;46.476;7.134;2023-10-31T04:49:04;8.00;99.90
20143;DHT22;10509;46.476;7.134;2023-10-31T04:51:37;8.00;99.90
20143;DHT22;10509;46.476;7.134;2023-10-31T04:54:03;8.10;99.90
20143;DHT22;10509;46.476;7.134;2023-10-31T04:56:29;8.10;99.90
20143;DHT22;10509;46.476;7.134;2023-10-31T04:58:55;8.20;99.90
20143;DHT22;10509;46.476;7.134;2023-10-31T05:01:21;8.30;99.90
20143;DHT22;10509;46.476;7.134;2023-10-31T05:03:46;8.30;99.90
20143;DHT22;10509;46.476;7.134;2023-10-31T05:06:12;8.30;99.90
20143;DHT22;10509;46.476;7.134;2023-10-31T05:08:37;8.20;99.90
20143;DHT22;10509;46.476;7.134;2023-10-31T05:11:03;8.20;99.90
20143;DHT22;10509;46.476;7.134;2023-10-31T05:13:29;8.20;99.90
20143;DHT22;10509;46.476;7.134;2023-10-31T05:15:55;8.20;99.90
20143;DHT22;10509;46.476;7.134;2023-10-31T05:18:21;8.20;99.90
20143;DHT22;10509;46.476;7.134;2023-10-31T05:20:47;8.30;99.90
20143;DHT22;10509;46.476;7.134;2023-10-31T05:23:13;8.20;99.90
20143;DHT22;10509;46.476;7.134;2023-10-31T05:25:38;8.30;99.90
20143;DHT22;10509;46.476;7.134;2023-10-31T05:28:04;8.10;99.90
20143;DHT22;10509;46.476;7.134;2023-10-31T05:30:30;8.20;99.90
20143;DHT22;10509;46.476;7.134;2023-10-31T05:32:56;8.20;99.90
20143;DHT22;10509;46.476;7.134;2023-10-31T05:35:22;8.20;99.90
20143;DHT22;10509;46.476;7.134;2023-10-31T05:37:48;8.30;99.90
20143;DHT22;10509;46.476;7.134;2023-10-31T05:40:14;8.30;99.90
20143;DHT22;10509;46.476;7.134;2023-10-31T05:42:40;8.30;99.90
20143;DHT22;10509;46.476;7.134;2023-10-31T05:45:06;8.30;99.90
20143;DHT22;10509;46.476;7.134;2023-10-31T05:47:32;8.30;99.90
20143;DHT22;10509;46.476;7.134;2023-10-31T05:49:58;8.30;99.90
20143;DHT22;10509;46.476;7.134;2023-10-31T05:52:31;8.30;99.90
20143;DHT22;10509;46.476;7.134;2023-10-31T05:54:57;8.20;99.90
20143;DHT22;10509;46.476;7.134;2023-10-31T05:57:23;8.10;99.90
20143;DHT22;10509;46.476;7.134;2023-10-31T05:59:49;8.00;99.90
20143;DHT22;10509;46.476;7.134;2023-10-31T06:02:14;7.80;99.90
20143;DHT22;10509;46.476;7.134;2023-10-31T06:04:40;7.70;99.90
20143;DHT22;10509;46.476;7.134;2023-10-31T06:07:06;7.80;99.90
20143;DHT22;10509;46.476;7.134;2023-10-31T06:09:32;7.80;99.90
20143;DHT22;10509;46.476;7.134;2023-10-31T06:12:01;7.80;99.90
20143;DHT22;10509;46.476;7.134;2023-10-31T06:14:26;7.80;99.90
20143;DHT22;10509;46.476;7.134;2023-10-31T06:16:52;7.80;99.90
20143;DHT22;10509;46.476;7.134;2023-10-31T06:19:18;7.90;99.90
20143;DHT22;10509;46.476;7.134;2023-10-31T06:24:09;7.90;99.90
20143;DHT22;10509;46.476;7.134;2023-10-31T06:26:35;7.90;99.90
20143;DHT22;10509;46.476;7.134;2023-10-31T06:29:01;7.90;99.90
20143;DHT22;10509;46.476;7.134;2023-10-31T06:31:27;8.00;99.90
20143;DHT22;10509;46.476;7.134;2023-10-31T06:33:52;8.00;99.90
20143;DHT22;10509;46.476;7.134;2023-10-31T06:36:18;8.00;99.90
20143;DHT22;10509;46.476;7.134;2023-10-31T06:38:44;8.10;99.90
20143;DHT22;10509;46.476;7.134;2023-10-31T06:41:09;8.10;99.90
20143;DHT22;10509;46.476;7.134;2023-10-31T06:43:35;8.00;99.90
20143;DHT22;10509;46.476;7.134;2023-10-31T06:46:01;8.00;99.90
20143;DHT22;10509;46.476;7.134;2023-10-31T06:48:29;8.00;99.90
20143;DHT22;10509;46.476;7.134;2023-10-31T06:50:55;8.00;99.90
20143;DHT22;10509;46.476;7.134;2023-10-31T06:53:20;7.90;99.90
20143;DHT22;10509;46.476;7.134;2023-10-31T06:55:46;8.00;99.90
20143;DHT22;10509;46.476;7.134;2023-10-31T06:58:12;7.90;99.90
20143;DHT22;10509;46.476;7.134;2023-10-31T07:00:38;7.70;99.90
20143;DHT22;10509;46.476;7.134;2023-10-31T07:03:04;7.80;99.90
20143;DHT22;10509;46.476;7.134;2023-10-31T07:05:37;7.90;99.90
20143;DHT22;10509;46.476;7.134;2023-10-31T07:10:29;7.50;99.90
20143;DHT22;10509;46.476;7.134;2023-10-31T07:12:55;7.30;99.90
20143;DHT22;10509;46.476;7.134;2023-10-31T07:15:20;7.20;99.90
20143;DHT22;10509;46.476;7.134;2023-10-31T07:17:46;7.40;99.90
20143;DHT22;10509;46.476;7.134;2023-10-31T07:22:38;7.10;99.90
20143;DHT22;10509;46.476;7.134;2023-10-31T07:25:06;7.10;99.90
20143;DHT22;10509;46.476;7.134;2023-10-31T07:27:31;7.20;99.90
20143;DHT22;10509;46.476;7.134;2023-10-31T07:29:57;7.20;99.90
20143;DHT22;10509;46.476;7.134;2023-10-31T07:37:15;7.40;99.90
20143;DHT22;10509;46.476;7.134;2023-10-31T07:39:40;7.60;99.90
20143;DHT22;10509;46.476;7.134;2023-10-31T07:42:06;7.70;99.90
20143;DHT22;10509;46.476;7.134;2023-10-31T07:44:32;7.70;99.90
20143;DHT22;10509;46.476;7.134;2023-10-31T07:46:57;7.80;99.90
20143;DHT22;10509;46.476;7.134;2023-10-31T07:54:15;7.90;99.90
20143;DHT22;10509;46.476;7.134;2023-10-31T07:56:41;8.00;99.90
20143;DHT22;10509;46.476;7.134;2023-10-31T07:59:08;8.10;99.90
20143;DHT22;10509;46.476;7.134;2023-10-31T08:01:34;8.20;99.90
20143;DHT22;10509;46.476;7.134;2023-10-31T08:06:26;8.40;99.90
20143;DHT22;10509;46.476;7.134;2023-10-31T08:08:52;8.40;99.90
20143;DHT22;10509;46.476;7.134;2023-10-31T08:11:18;8.70;99.90
20143;DHT22;10509;46.476;7.134;2023-10-31T08:13:44;8.70;99.90
20143;DHT22;10509;46.476;7.134;2023-10-31T08:16:10;8.80;99.90
20143;DHT22;10509;46.476;7.134;2023-10-31T08:18:36;8.60;99.90
20143;DHT22;10509;46.476;7.134;2023-10-31T08:21:02;8.70;99.90
20143;DHT22;10509;46.476;7.134;2023-10-31T08:23:29;8.90;99.90
20143;DHT22;10509;46.476;7.134;2023-10-31T08:25:54;9.00;99.90
20143;DHT22;10509;46.476;7.134;2023-10-31T08:28:20;9.20;99.90
20143;DHT22;10509;46.476;7.134;2023-10-31T08:30:46;8.80;99.90
20143;DHT22;10509;46.476;7.134;2023-10-31T08:35:38;8.40;99.90
20143;DHT22;10509;46.476;7.134;2023-10-31T08:38:04;8.50;99.90
20143;DHT22;10509;46.476;7.134;2023-10-31T08:40:29;8.50;99.90
20143;DHT22;10509;46.476;7.134;2023-10-31T08:42:55;8.60;99.90
20143;DHT22;10509;46.476;7.134;2023-10-31T08:47:47;8.90;99.90
20143;DHT22;10509;46.476;7.134;2023-10-31T08:50:12;9.10;99.90
20143;DHT22;10509;46.476;7.134;2023-10-31T08:52:39;9.00;99.90
20143;DHT22;10509;46.476;7.134;2023-10-31T08:55:05;9.00;99.90
20143;DHT22;10509;46.476;7.134;2023-10-31T08:57:31;9.10;99.90
20143;DHT22;10509;46.476;7.134;2023-10-31T08:59:59;9.10;99.90
20143;DHT22;10509;46.476;7.134;2023-10-31T09:02:24;9.20;99.90
20143;DHT22;10509;46.476;7.134;2023-10-31T09:04:50;9.30;99.90
20143;DHT22;10509;46.476;7.134;2023-10-31T09:07:15;9.40;99.90
20143;DHT22;10509;46.476;7.134;2023-10-31T09:09:41;9.50;99.90
20143;DHT22;10509;46.476;7.134;2023-10-31T09:12:07;9.30;99.90
20143;DHT22;10509;46.476;7.134;2023-10-31T09:17:00;8.90;99.90
20143;DHT22;10509;46.476;7.134;2023-10-31T09:19:25;9.00;99.90
20143;DHT22;10509;46.476;7.134;2023-10-31T09:21:51;8.80;99.90
20143;DHT22;10509;46.476;7.134;2023-10-31T09:24:16;9.00;99.90
20143;DHT22;10509;46.476;7.134;2023-10-31T09:26:42;9.30;99.90
20143;DHT22;10509;46.476;7.134;2023-10-31T09:29:10;9.70;99.90
20143;DHT22;10509;46.476;7.134;2023-10-31T09:31:35;10.00;99.90
20143;DHT22;10509;46.476;7.134;2023-10-31T09:34:01;10.20;99.90
20143;DHT22;10509;46.476;7.134;2023-10-31T09:36:31;10.10;99.90
20143;DHT22;10509;46.476;7.134;2023-10-31T09:38:57;9.90;99.90
20143;DHT22;10509;46.476;7.134;2023-10-31T09:41:22;9.90;99.90
20143;DHT22;10509;46.476;7.134;2023-10-31T09:43:48;10.00;99.90
20143;DHT22;10509;46.476;7.134;2023-10-31T09:46:15;10.20;99.90
20143;DHT22;10509;46.476;7.134;2023-10-31T09:48:42;10.10;99.90
20143;DHT22;10509;46.476;7.134;2023-10-31T09:51:08;10.20;99.90
20143;DHT22;10509;46.476;7.134;2023-10-31T09:53:37;10.30;99.90
20143;DHT22;10509;46.476;7.134;2023-10-31T09:56:04;10.50;99.90
20143;DHT22;10509;46.476;7.134;2023-10-31T09:58:31;10.50;99.90
20143;DHT22;10509;46.476;7.134;2023-10-31T10:00:57;10.60;99.90
20143;DHT22;10509;46.476;7.134;2023-10-31T10:03:23;10.50;99.90
20143;DHT22;10509;46.476;7.134;2023-10-31T10:05:49;10.50;99.90
20143;DHT22;10509;46.476;7.134;2023-10-31T10:08:15;10.60;99.90
20143;DHT22;10509;46.476;7.134;2023-10-31T10:10:41;10.70;99.90
20143;DHT22;10509;46.476;7.134;2023-10-31T10:13:07;10.70;99.90
20143;DHT22;10509;46.476;7.134;2023-10-31T10:15:50;10.80;99.90
20143;DHT22;10509;46.476;7.134;2023-10-31T10:18:25;10.80;99.90
20143;DHT22;10509;46.476;7.134;2023-10-31T10:20:56;10.70;99.90
20143;DHT22;10509;46.476;7.134;2023-10-31T10:23:22;10.80;99.90
20143;DHT22;10509;46.476;7.134;2023-10-31T10:25:49;10.80;99.90
20143;DHT22;10509;46.476;7.134;2023-10-31T10:28:15;10.80;99.90
20143;DHT22;10509;46.476;7.134;2023-10-31T10:30:41;10.80;99.90
20143;DHT22;10509;46.476;7.134;2023-10-31T10:33:06;10.90;99.90
20143;DHT22;10509;46.476;7.134;2023-10-31T10:35:32;11.00;99.90
20143;DHT22;10509;46.476;7.134;2023-10-31T10:38:00;11.10;99.90
20143;DHT22;10509;46.476;7.134;2023-10-31T10:40:26;11.20;99.90
20143;DHT22;10509;46.476;7.134;2023-10-31T10:42:58;11.20;99.90
20143;DHT22;10509;46.476;7.134;2023-10-31T10:45:25;11.20;99.90
20143;DHT22;10509;46.476;7.134;2023-10-31T10:47:52;11.00;99.90
20143;DHT22;10509;46.476;7.134;2023-10-31T10:50:20;11.00;99.90
20143;DHT22;10509;46.476;7.134;2023-10-31T10:55:45;10.90;99.90
20143;DHT22;10509;46.476;7.134;2023-10-31T10:58:41;10.80;99.90
20143;DHT22;10509;46.476;7.134;2023-10-31T11:01:10;10.80;99.90
20143;DHT22;10509;46.476;7.134;2023-10-31T11:03:36;10.80;99.90
20143;DHT22;10509;46.476;7.134;2023-10-31T11:06:03;10.80;99.90
20143;DHT22;10509;46.476;7.134;2023-10-31T11:08:30;10.90;99.90
20143;DHT22;10509;46.476;7.134;2023-10-31T11:10:57;10.90;99.90
20143;DHT22;10509;46.476;7.134;2023-10-31T11:13:24;10.90;99.90
20143;DHT22;10509;46.476;7.134;2023-10-31T11:15:53;10.80;99.90
20143;DHT22;10509;46.476;7.134;2023-10-31T11:18:20;10.80;99.90
20143;DHT22;10509;46.476;7.134;2023-10-31T11:20:47;10.70;99.90
20143;DHT22;10509;46.476;7.134;2023-10-31T11:23:13;10.70;99.90
20143;DHT22;10509;46.476;7.134;2023-10-31T11:25:49;10.70;99.90
20143;DHT22;10509;46.476;7.134;2023-10-31T11:28:18;10.80;99.90
20143;DHT22;10509;46.476;7.134;2023-10-31T11:30:47;10.70;99.90
20143;DHT22;10509;46.476;7.134;2023-10-31T11:33:15;10.70;99.90
20143;DHT22;10509;46.476;7.134;2023-10-31T11:35:42;10.60;99.90
20143;DHT22;10509;46.476;7.134;2023-10-31T11:38:10;10.60;99.90
20143;DHT22;10509;46.476;7.134;2023-10-31T11:43:14;10.60;99.90
20143;DHT22;10509;46.476;7.134;2023-10-31T11:45:42;10.40;99.90
20143;DHT22;10509;46.476;7.134;2023-10-31T11:48:10;10.40;99.90
20143;DHT22;10509;46.476;7.134;2023-10-31T11:50:37;10.20;99.90
20143;DHT22;10509;46.476;7.134;2023-10-31T11:53:13;10.30;99.90
20143;DHT22;10509;46.476;7.134;2023-10-31T11:55:45;10.30;99.90
20143;DHT22;10509;46.476;7.134;2023-10-31T12:00:41;10.40;99.90
20143;DHT22;10509;46.476;7.134;2023-10-31T12:03:08;10.30;99.90
20143;DHT22;10509;46.476;7.134;2023-10-31T12:05:33;10.20;99.90
20143;DHT22;10509;46.476;7.134;2023-10-31T12:07:59;10.20;99.90
20143;DHT22;10509;46.476;7.134;2023-10-31T12:10:26;10.20;99.90
20143;DHT22;10509;46.476;7.134;2023-10-31T12:12:55;10.10;99.90
20143;DHT22;10509;46.476;7.134;2023-10-31T12:15:21;10.00;99.90
20143;DHT22;10509;46.476;7.134;2023-10-31T12:17:47;10.00;99.90
20143;DHT22;10509;46.476;7.134;2023-10-31T12:20:13;10.00;99.90
20143;DHT22;10509;46.476;7.134;2023-10-31T12:22:38;10.00;99.90
20143;DHT22;10509;46.476;7.134;2023-10-31T12:25:07;10.00;99.90
20143;DHT22;10509;46.476;7.134;2023-10-31T12:27:49;10.00;99.90
20143;DHT22;10509;46.476;7.134;2023-10-31T12:30:17;10.10;99.90
20143;DHT22;10509;46.476;7.134;2023-10-31T12:32:43;10.10;99.90
20143;DHT22;10509;46.476;7.134;2023-10-31T12:35:12;10.00;99.90
20143;DHT22;10509;46.476;7.134;2023-10-31T12:37:46;10.00;99.90
20143;DHT22;10509;46.476;7.134;2023-10-31T12:40:17;9.90;99.90
20143;DHT22;10509;46.476;7.134;2023-10-31T12:42:44;9.80;99.90
20143;DHT22;10509;46.476;7.134;2023-10-31T12:45:11;9.90;99.90
20143;DHT22;10509;46.476;7.134;2023-10-31T12:47:37;9.90;99.90
20143;DHT22;10509;46.476;7.134;2023-10-31T12:50:07;9.90;99.90
20143;DHT22;10509;46.476;7.134;2023-10-31T12:52:50;9.90;99.90
20143;DHT22;10509;46.476;7.134;2023-10-31T12:55:23;9.70;99.90
20143;DHT22;10509;46.476;7.134;2023-10-31T12:57:50;9.70;99.90
20143;DHT22;10509;46.476;7.134;2023-10-31T13:00:18;9.80;99.90
20143;DHT22;10509;46.476;7.134;2023-10-31T13:02:59;9.70;99.90
20143;DHT22;10509;46.476;7.134;2023-10-31T13:05:27;9.70;99.90
20143;DHT22;10509;46.476;7.134;2023-10-31T13:07:53;9.60;99.90
20143;DHT22;10509;46.476;7.134;2023-10-31T13:10:28;9.70;99.90
20143;DHT22;10509;46.476;7.134;2023-10-31T13:12:54;9.60;99.90
20143;DHT22;10509;46.476;7.134;2023-10-31T13:15:21;9.70;99.90
20143;DHT22;10509;46.476;7.134;2023-10-31T13:17:48;9.70;99.90
20143;DHT22;10509;46.476;7.134;2023-10-31T13:20:15;9.50;99.90
20143;DHT22;10509;46.476;7.134;2023-10-31T13:22:42;9.50;99.90
20143;DHT22;10509;46.476;7.134;2023-10-31T13:25:10;9.60;99.90
20143;DHT22;10509;46.476;7.134;2023-10-31T13:27:45;9.20;99.90
20143;DHT22;10509;46.476;7.134;2023-10-31T13:30:16;9.40;99.90
20143;DHT22;10509;46.476;7.134;2023-10-31T13:32:43;9.40;99.90
20143;DHT22;10509;46.476;7.134;2023-10-31T13:35:09;9.60;99.90
20143;DHT22;10509;46.476;7.134;2023-10-31T13:37:36;9.70;99.90
20143;DHT22;10509;46.476;7.134;2023-10-31T13:40:05;9.60;99.90
20143;DHT22;10509;46.476;7.134;2023-10-31T13:42:34;9.50;99.90
20143;DHT22;10509;46.476;7.134;2023-10-31T13:44:59;9.50;99.90
20143;DHT22;10509;46.476;7.134;2023-10-31T13:47:25;9.50;99.90
20143;DHT22;10509;46.476;7.134;2023-10-31T13:49:50;9.50;99.90
20143;DHT22;10509;46.476;7.134;2023-10-31T13:52:16;9.50;99.90
20143;DHT22;10509;46.476;7.134;2023-10-31T13:57:09;9.50;99.90
20143;DHT22;10509;46.476;7.134;2023-10-31T13:59:34;9.60;99.90
20143;DHT22;10509;46.476;7.134;2023-10-31T14:02:00;9.60;99.90
20143;DHT22;10509;46.476;7.134;2023-10-31T14:04:26;9.60;99.90
20143;DHT22;10509;46.476;7.134;2023-10-31T14:09:17;9.50;99.90
20143;DHT22;10509;46.476;7.134;2023-10-31T14:14:09;9.50;99.90
20143;DHT22;10509;46.476;7.134;2023-10-31T14:16:46;9.40;99.90
20143;DHT22;10509;46.476;7.134;2023-10-31T14:19:12;9.40;99.90
20143;DHT22;10509;46.476;7.134;2023-10-31T14:21:39;9.50;99.90
20143;DHT22;10509;46.476;7.134;2023-10-31T14:24:05;9.50;99.90
20143;DHT22;10509;46.476;7.134;2023-10-31T14:26:31;9.60;99.90
20143;DHT22;10509;46.476;7.134;2023-10-31T14:31:24;9.40;99.90
20143;DHT22;10509;46.476;7.134;2023-10-31T14:33:50;9.40;99.90
20143;DHT22;10509;46.476;7.134;2023-10-31T14:36:16;9.50;99.90
20143;DHT22;10509;46.476;7.134;2023-10-31T14:38:41;9.50;99.90
20143;DHT22;10509;46.476;7.134;2023-10-31T14:41:07;9.50;99.90
20143;DHT22;10509;46.476;7.134;2023-10-31T14:43:34;9.30;99.90
20143;DHT22;10509;46.476;7.134;2023-10-31T14:46:00;9.30;99.90
20143;DHT22;10509;46.476;7.134;2023-10-31T14:50:52;9.20;99.90
20143;DHT22;10509;46.476;7.134;2023-10-31T14:53:18;9.40;99.90
20143;DHT22;10509;46.476;7.134;2023-10-31T14:58:12;9.50;99.90
20143;DHT22;10509;46.476;7.134;2023-10-31T15:00:38;9.60;99.90
20143;DHT22;10509;46.476;7.134;2023-10-31T15:03:04;9.50;99.90
20143;DHT22;10509;46.476;7.134;2023-10-31T15:05:30;9.50;99.90
20143;DHT22;10509;46.476;7.134;2023-10-31T15:07:56;9.60;99.90
20143;DHT22;10509;46.476;7.134;2023-10-31T15:10:23;9.60;99.90
20143;DHT22;10509;46.476;7.134;2023-10-31T15:12:49;9.70;99.90
20143;DHT22;10509;46.476;7.134;2023-10-31T15:15:17;9.70;99.90
20143;DHT22;10509;46.476;7.134;2023-10-31T15:17:43;9.70;99.90
20143;DHT22;10509;46.476;7.134;2023-10-31T15:20:09;9.70;99.90
20143;DHT22;10509;46.476;7.134;2023-10-31T15:22:37;9.60;99.90
20143;DHT22;10509;46.476;7.134;2023-10-31T15:25:03;9.70;99.90
20143;DHT22;10509;46.476;7.134;2023-10-31T15:27:29;9.70;99.90
20143;DHT22;10509;46.476;7.134;2023-10-31T15:29:55;9.80;99.90
20143;DHT22;10509;46.476;7.134;2023-10-31T15:32:20;9.70;99.90
20143;DHT22;10509;46.476;7.134;2023-10-31T15:34:46;9.60;99.90
20143;DHT22;10509;46.476;7.134;2023-10-31T15:37:11;9.60;99.90
20143;DHT22;10509;46.476;7.134;2023-10-31T15:39:38;9.70;99.90
20143;DHT22;10509;46.476;7.134;2023-10-31T15:42:05;9.70;99.90
20143;DHT22;10509;46.476;7.134;2023-10-31T15:44:32;9.70;99.90
20143;DHT22;10509;46.476;7.134;2023-10-31T15:46:57;9.70;99.90
20143;DHT22;10509;46.476;7.134;2023-10-31T15:49:23;9.80;99.90
20143;DHT22;10509;46.476;7.134;2023-10-31T15:51:48;9.70;99.90
20143;DHT22;10509;46.476;7.134;2023-10-31T15:54:14;9.70;99.90
20143;DHT22;10509;46.476;7.134;2023-10-31T15:56:40;9.70;99.90
20143;DHT22;10509;46.476;7.134;2023-10-31T15:59:05;9.70;99.90
20143;DHT22;10509;46.476;7.134;2023-10-31T16:01:31;9.80;99.90
20143;DHT22;10509;46.476;7.134;2023-10-31T16:03:57;9.70;99.90
20143;DHT22;10509;46.476;7.134;2023-10-31T16:06:22;9.60;99.90
20143;DHT22;10509;46.476;7.134;2023-10-31T16:08:48;9.60;99.90
20143;DHT22;10509;46.476;7.134;2023-10-31T16:11:14;9.50;99.90
20143;DHT22;10509;46.476;7.134;2023-10-31T16:13:40;9.60;99.90
20143;DHT22;10509;46.476;7.134;2023-10-31T16:16:09;9.60;99.90
20143;DHT22;10509;46.476;7.134;2023-10-31T16:18:37;9.60;99.90
20143;DHT22;10509;46.476;7.134;2023-10-31T16:21:14;9.60;99.90
20143;DHT22;10509;46.476;7.134;2023-10-31T16:23:40;9.60;99.90
20143;DHT22;10509;46.476;7.134;2023-10-31T16:26:06;9.60;99.90
20143;DHT22;10509;46.476;7.134;2023-10-31T16:28:33;9.50;99.90